Onweer radar Meer informatie blitzortung!


Regen radar Meer informatie rain snow radar



METAR rapporten vliegvelden

   
EHVK - Volkel Rnlafb, Netherlands
Afstand tot: ZW 18 km
Gewijzigd: 23-10-2021 03:07
Nevel, Bewolking  
Nevel, Bewolking  
   Wind: WZW 5.6 km/h
Wind: WZW 5.6 km/h
Temperatuur: 7°C
Voelt als: 6°C
Dauwpunt: 6°C
Vochtigheid: 93%
Barometer: 1024 hPa
Bewolking: Bewolking
Zicht: 8 km
Bewolking: Licht bewolkt 5300 ft,
Bewolking 6000 ft
EHVK 230107Z AUTO 24003KT 8000 BR FEW053 OVC060 07/06 Q1024 BLU
EDLV - Niederrhein, Germany
Afstand tot: ZO 25 km
Gewijzigd: 22-10-2021 23:50
Verouderd
Grotendeels bewolkt  
Grotendeels bewolkt  
   Wind: WZW 7.4 km/h
Wind: WZW 7.4 km/h
Temperatuur: 8°C
Voelt als: 7°C
Dauwpunt: 7°C
Vochtigheid: 93%
Barometer: 1023 hPa
Bewolking: Grotendeels bewolkt
Zicht: meer dan 10 km
Bewolking: Grotendeels bewolkt 4800 ft
EDLV 222150Z 24004KT 9999 BKN048 08/07 Q1023
EHDL - Deelen Rnlafb, Netherlands
Afstand tot: N 35 km
Gewijzigd: 23-10-2021 02:55
Nevel, Bewolking  
Nevel, Bewolking  
   Wind: Zuiden 1.9 km/h
Wind: Zuiden 1.9 km/h
Temperatuur: 4°C
Dauwpunt: 4°C
Vochtigheid: 100%
Barometer: 1024 hPa
Bewolking: Bewolking
Zicht: 9 km
Bewolking: Gedeeltelijk bewolkt 4800 ft,
Bewolking 17000 ft
EHDL 230055Z AUTO 18001KT 9000 BR SCT048 OVC170 04/04 Q1024 BLU
EHEH - Eindhoven Rnlafb, Netherlands
Afstand tot: ZW 48 km
Gewijzigd: 23-10-2021 03:15
Nevel, Bewolking  
Nevel, Bewolking  
   Wind: ZW 7.4 km/h
Wind: ZW 7.4 km/h
Temperatuur: 7°C
Voelt als: 6°C
Dauwpunt: 7°C
Vochtigheid: 100%
Barometer: 1025 hPa
Bewolking: Bewolking
Zicht: 3 km
Bewolking: Licht bewolkt 4800 ft,
Gedeeltelijk bewolkt 5300 ft,
Bewolking 6400 ft
EHEH 230115Z AUTO 22004KT 3400 BR FEW048 SCT053 OVC064 07/07 Q1025 YLO
EHGR - Gilze-Rijen Rnla, Netherlands
Afstand tot: WZW 70 km
Gewijzigd: 23-10-2021 02:55
Nevel, Grotendeels bewolkt  
Nevel, Grotendeels bewolkt  
   Wind: WZW 5.6 km/h
Wind: WZW 5.6 km/h
Temperatuur: 8°C
Voelt als: 7°C
Dauwpunt: 8°C
Vochtigheid: 100%
Barometer: 1024 hPa
Bewolking: Grotendeels bewolkt
Zicht: 4 km
Bewolking: Licht bewolkt 3700 ft,
Grotendeels bewolkt 4700 ft,
Grotendeels bewolkt 5300 ft
EHGR 230055Z AUTO 24003KT 3600 BR FEW037 BKN047 BKN053 08/08 Q1024 YLO
EBBL - Kleine-Brogel(Ba, Belgium
Afstand tot: ZZW 71 km
Gewijzigd: 23-10-2021 02:55
Lichte (mot)regen, Bewolking  
Lichte (mot)regen, Bewolking  
   Wind: WZW 7.4 km/h
Wind: WZW 7.4 km/h
Temperatuur: 8°C
Voelt als: 7°C
Dauwpunt: 8°C
Vochtigheid: 100%
Barometer: 1025 hPa
Bewolking: Bewolking
Zicht: 4 km
Bewolking: Licht bewolkt 3800 ft,
Bewolking 6500 ft
EBBL 230055Z AUTO 24004KT 3600 -DZ FEW038/// OVC065/// 08/08 Q1025 YLO

Script ontwikkeld door  Saratoga-weather.org Aangepast voor de template door  Weerstation Leuven